Time;durP1;ratioP1;P1;durP2;ratioP2;P2;SDS_P1;SDS_P2;PMS_P1;PMS_P2;Temp;Humidity;BMP_temperature;BMP_pressure;BME280_temperature;BME280_humidity;BME280_pressure;Samples;Min_cycle;Max_cycle;Signal;HPM_P1;HPM_P2
2022/05/03 00:00:58;;;;;;;38.70;19.00;;;;;;;9.13;63.24;100219.39;105618;1275;22547;-63
2022/05/03 00:03:35;;;;;;;36.70;20.40;;;;;;;9.09;63.48;100218.14;105744;1276;22725;-62
2022/05/03 00:06:17;;;;;;;42.10;20.20;;;;;;;9.03;63.57;100218.51;105497;1274;22558;-62
2022/05/03 00:08:54;;;;;;;37.20;19.90;;;;;;;8.97;63.47;100211.07;105465;1276;25006;-62
2022/05/03 00:11:33;;;;;;;41.30;21.80;;;;;;;8.95;63.57;100210.05;105594;1276;24467;-62
2022/05/03 00:14:17;;;;;;;39.40;20.80;;;;;;;8.93;63.63;100206.50;105551;1276;25260;-62
2022/05/03 00:16:53;;;;;;;41.30;21.80;;;;;;;8.89;64.44;100210.32;105614;1276;25428;-61
2022/05/03 00:19:24;;;;;;;40.50;22.60;;;;;;;8.78;65.29;100205.92;105516;1276;22537;-63
2022/05/03 00:21:56;;;;;;;42.80;23.40;;;;;;;8.68;65.40;100207.58;105514;1276;24418;-62
2022/05/03 00:24:29;;;;;;;43.60;23.00;;;;;;;8.62;65.23;100204.90;105456;1276;24310;-63
2022/05/03 00:27:01;;;;;;;43.10;22.70;;;;;;;8.61;64.91;100204.17;105658;1276;22592;-62
2022/05/03 00:29:34;;;;;;;37.30;23.20;;;;;;;8.61;65.00;100197.58;105487;1275;24460;-63
2022/05/03 00:32:07;;;;;;;41.40;20.80;;;;;;;8.61;64.81;100197.48;105548;1276;22612;-61
2022/05/03 00:34:39;;;;;;;47.10;23.00;;;;;;;8.60;65.38;100202.07;105535;1276;22581;-61
2022/05/03 00:37:10;;;;;;;41.40;23.40;;;;;;;8.55;65.38;100208.41;105472;1275;24333;-61
2022/05/03 00:39:42;;;;;;;40.00;22.00;;;;;;;8.51;65.50;100201.98;105705;1276;22551;-62
2022/05/03 00:42:20;;;;;;;41.60;21.90;;;;;;;8.50;65.38;100202.82;105718;1276;22612;-62
2022/05/03 00:45:11;;;;;;;40.70;21.90;;;;;;;8.49;65.58;100201.61;105677;1276;25606;-62
2022/05/03 00:47:51;;;;;;;43.20;22.20;;;;;;;8.47;65.54;100206.84;105677;1276;25742;-61
2022/05/03 00:50:35;;;;;;;45.20;24.80;;;;;;;8.46;65.77;100206.81;105594;1275;22890;-62
2022/05/03 00:53:11;;;;;;;46.40;24.30;;;;;;;8.42;66.29;100208.98;105557;1276;22581;-62
2022/05/03 00:56:05;;;;;;;47.00;24.10;;;;;;;8.33;66.28;100208.45;105554;1276;22749;-61
2022/05/03 00:58:53;;;;;;;42.30;22.60;;;;;;;8.29;66.30;100210.19;105603;1276;25398;-61
2022/05/03 01:01:32;;;;;;;40.70;21.80;;;;;;;8.26;66.61;100207.65;105508;1275;22553;-62
2022/05/03 01:04:21;;;;;;;42.20;20.70;;;;;;;8.25;66.19;100204.90;105569;1276;25497;-62
2022/05/03 01:07:03;;;;;;;46.80;22.70;;;;;;;8.25;66.50;100202.10;105706;1275;24333;-61
2022/05/03 01:09:40;;;;;;;43.10;21.80;;;;;;;8.26;66.25;100204.88;105583;1274;22549;-61
2022/05/03 01:12:24;;;;;;;41.90;21.40;;;;;;;8.24;66.27;100203.27;105630;1276;22546;-62
2022/05/03 01:15:09;;;;;;;43.20;21.10;;;;;;;8.22;66.15;100206.58;105570;1276;25333;-62
2022/05/03 01:17:53;;;;;;;42.60;21.70;;;;;;;8.20;66.40;100203.18;105802;1276;22538;-62
2022/05/03 01:20:31;;;;;;;39.40;21.00;;;;;;;8.15;66.43;100203.08;105508;1275;22587;-62
2022/05/03 01:23:36;;;;;;;43.60;21.10;;;;;;;8.10;66.40;100202.73;105565;1276;24417;-62
2022/05/03 01:26:39;;;;;;;40.30;20.70;;;;;;;8.07;66.69;100205.89;105658;1276;22572;-62
2022/05/03 01:29:25;;;;;;;42.40;21.30;;;;;;;8.03;66.60;100208.11;105710;1276;25662;-62
2022/05/03 01:32:00;;;;;;;36.70;19.30;;;;;;;8.00;66.67;100207.72;105576;1276;22609;-62
2022/05/03 01:34:34;;;;;;;39.20;19.10;;;;;;;7.97;66.48;100207.37;105549;1276;24333;-62
2022/05/03 01:37:31;;;;;;;42.40;20.80;;;;;;;7.94;66.52;100211.45;105484;1276;22705;-63
2022/05/03 01:40:07;;;;;;;38.50;18.60;;;;;;;7.91;66.56;100213.26;105451;1276;24268;-62
2022/05/03 01:43:05;;;;;;;39.20;20.50;;;;;;;7.88;66.66;100212.81;105545;1276;25260;-61
2022/05/03 01:45:43;;;;;;;35.30;20.20;;;;;;;7.83;66.59;100213.90;105474;1276;22550;-61
2022/05/03 01:50:18;;;;;;;42.70;22.30;;;;;;;7.80;66.57;100218.72;105448;1276;22702;-62
2022/05/03 01:51:31;;;;;;;40.60;21.40;;;;;;;7.77;66.79;100216.19;105386;1276;25437;-62
2022/05/03 01:54:20;;;;;;;38.80;21.10;;;;;;;7.72;66.72;100217.96;105343;1277;22600;-63
2022/05/03 01:57:02;;;;;;;40.90;19.90;;;;;;;7.68;66.81;100217.98;105350;1276;22706;-63
2022/05/03 01:59:45;;;;;;;41.10;21.10;;;;;;;7.65;66.84;100215.00;105332;1277;22562;-62
2022/05/03 02:02:27;;;;;;;46.10;22.90;;;;;;;7.60;67.01;100216.70;105337;1276;23653;-63
2022/05/03 02:05:08;;;;;;;42.80;22.20;;;;;;;7.55;67.14;100215.80;105337;1277;22628;-62
2022/05/03 02:07:53;;;;;;;36.50;20.70;;;;;;;7.52;67.12;100213.95;105860;1276;25550;-61
2022/05/03 02:10:46;;;;;;;42.30;22.60;;;;;;;7.48;66.98;100210.61;105348;1277;27581;-61
2022/05/03 02:16:31;;;;;;;44.50;22.40;;;;;;;7.42;67.08;100210.68;105287;1277;22562;-62
2022/05/03 02:19:18;;;;;;;49.00;25.10;;;;;;;7.39;67.24;100212.16;105535;1277;22547;-61
2022/05/03 02:22:01;;;;;;;45.50;25.50;;;;;;;7.34;67.31;100213.38;105416;1277;25323;-62
2022/05/03 02:24:45;;;;;;;49.00;25.80;;;;;;;7.31;67.39;100214.69;105366;1276;22658;-62
2022/05/03 02:27:20;;;;;;;47.90;24.00;;;;;;;7.27;67.42;100215.09;105474;1275;23260;-62
2022/05/03 02:29:53;;;;;;;44.00;25.40;;;;;;;7.24;67.34;100211.30;105593;1277;22621;-62
2022/05/03 02:32:46;;;;;;;48.70;24.60;;;;;;;7.22;67.37;100207.63;105500;1275;22550;-61
2022/05/03 02:35:22;;;;;;;43.00;23.30;;;;;;;7.18;67.60;100208.88;105440;1277;22569;-62
2022/05/03 02:38:05;;;;;;;43.20;23.50;;;;;;;7.15;67.27;100206.20;105891;1277;22556;-61
2022/05/03 02:40:45;;;;;;;47.00;24.70;;;;;;;7.14;67.15;100201.57;105434;1277;25453;-61
2022/05/03 02:43:18;;;;;;;45.60;23.90;;;;;;;7.14;67.36;100206.10;105440;1277;23022;-61
2022/05/03 02:45:56;;;;;;;41.40;23.00;;;;;;;7.13;67.22;100200.12;105628;1277;24319;-62
2022/05/03 02:48:37;;;;;;;46.80;23.30;;;;;;;7.12;67.14;100200.20;105644;1276;24344;-62
2022/05/03 02:51:08;;;;;;;;;;;;;;;7.12;67.31;100201.35;105455;1276;22541;-60
2022/05/03 02:53:49;;;;;;;44.00;23.10;;;;;;;7.08;67.41;100198.72;105431;1274;22489;-60
2022/05/03 02:56:24;;;;;;;39.90;22.90;;;;;;;7.07;67.50;100196.55;105356;1277;25373;-61
2022/05/03 02:59:12;;;;;;;44.70;23.80;;;;;;;7.05;67.89;100200.44;105592;1277;22534;-61
2022/05/03 03:01:52;;;;;;;55.60;26.40;;;;;;;7.03;68.22;100200.96;105426;1277;23256;-62
2022/05/03 03:04:36;;;;;;;48.60;26.50;;;;;;;7.00;69.01;100200.87;105338;1277;25324;-62
2022/05/03 03:07:08;;;;;;;53.80;28.30;;;;;;;6.96;69.20;100202.52;105370;1277;24402;-61
2022/05/03 03:09:44;;;;;;;45.70;25.00;;;;;;;6.94;69.18;100206.58;105480;1277;24309;-60
2022/05/03 03:12:31;;;;;;;46.30;26.10;;;;;;;6.92;68.82;100205.30;105378;1276;22609;-61
2022/05/03 03:15:07;;;;;;;45.20;27.40;;;;;;;6.90;69.30;100207.36;105492;1276;22710;-60
2022/05/03 03:17:42;;;;;;;47.80;27.30;;;;;;;6.80;70.28;100209.70;105475;1276;22782;-61
2022/05/03 03:20:15;;;;;;;48.00;27.20;;;;;;;6.74;69.98;100213.38;105471;1275;25004;-61
2022/05/03 03:22:48;;;;;;;46.00;25.90;;;;;;;6.71;70.01;100213.39;105737;1274;25831;-61
2022/05/03 03:25:20;;;;;;;49.00;25.10;;;;;;;6.69;69.87;100213.80;105586;1277;22614;-63
2022/05/03 03:27:53;;;;;;;51.10;25.90;;;;;;;6.67;69.74;100215.77;105736;1277;22534;-61
2022/05/03 03:30:24;;;;;;;45.30;25.20;;;;;;;6.66;69.99;100217.89;105785;1277;22550;-61
2022/05/03 03:32:58;;;;;;;46.50;25.80;;;;;;;6.63;70.05;100216.02;105705;1274;23590;-61
2022/05/03 03:35:32;;;;;;;48.10;26.30;;;;;;;6.61;69.97;100212.65;105699;1274;22587;-61
2022/05/03 03:38:06;;;;;;;46.20;26.10;;;;;;;6.60;70.15;100216.02;105658;1275;22553;-62
2022/05/03 03:40:37;;;;;;;48.20;25.70;;;;;;;6.58;70.00;100214.83;105419;1275;22537;-62
2022/05/03 03:43:11;;;;;;;46.10;23.30;;;;;;;6.58;69.54;100211.58;105539;1277;22554;-61
2022/05/03 03:45:44;;;;;;;43.70;23.40;;;;;;;6.58;69.29;100211.42;105626;1277;22578;-61
2022/05/03 03:48:16;;;;;;;41.90;24.10;;;;;;;6.60;69.36;100213.98;105461;1274;25318;-62
2022/05/03 03:50:48;;;;;;;43.60;24.50;;;;;;;6.60;69.38;100215.65;105492;1276;24243;-60
2022/05/03 03:53:20;;;;;;;40.00;23.40;;;;;;;6.60;69.15;100210.01;105714;1277;22559;-61
2022/05/03 03:55:53;;;;;;;44.10;23.50;;;;;;;6.61;69.00;100211.78;105492;1277;23291;-61
2022/05/03 03:58:25;;;;;;;44.30;24.00;;;;;;;6.62;69.20;100213.42;105800;1277;22656;-63
2022/05/03 04:00:57;;;;;;;43.60;24.10;;;;;;;6.63;69.50;100214.50;105557;1276;22654;-61
2022/05/03 04:03:29;;;;;;;44.40;25.70;;;;;;;6.62;69.64;100217.75;105673;1276;24292;-62
2022/05/03 04:06:00;;;;;;;47.40;25.30;;;;;;;6.62;70.22;100217.05;105478;1276;23774;-62
2022/05/03 04:08:32;;;;;;;49.30;25.50;;;;;;;6.61;70.37;100220.00;105536;1275;25254;-60
2022/05/03 04:11:15;;;;;;;48.60;25.70;;;;;;;6.61;70.43;100221.39;105471;1277;24335;-61
2022/05/03 04:13:47;;;;;;;45.40;25.30;;;;;;;6.62;70.32;100223.55;105577;1276;24319;-62
2022/05/03 04:16:19;;;;;;;44.40;24.20;;;;;;;6.64;70.62;100226.60;105613;1276;24406;-63
2022/05/03 04:18:51;;;;;;;46.00;25.30;;;;;;;6.66;70.41;100226.77;105691;1274;25341;-62
2022/05/03 04:21:22;;;;;;;45.70;24.30;;;;;;;6.68;70.17;100226.44;105543;1276;24395;-62
2022/05/03 04:23:54;;;;;;;41.60;23.00;;;;;;;6.72;70.34;100225.27;105545;1276;25426;-61
2022/05/03 04:26:25;;;;;;;43.90;26.20;;;;;;;6.75;70.43;100227.18;105530;1276;23101;-60
2022/05/03 04:29:00;;;;;;;39.00;23.10;;;;;;;6.78;71.24;100228.65;105595;1276;25263;-61
2022/05/03 04:31:33;;;;;;;45.00;24.20;;;;;;;6.80;71.54;100230.09;105519;1276;22548;-61
2022/05/03 04:34:05;;;;;;;43.70;23.30;;;;;;;6.83;71.46;100230.48;105710;1276;22552;-61
2022/05/03 04:36:39;;;;;;;41.60;23.60;;;;;;;6.87;70.97;100236.11;105536;1275;22642;-61
2022/05/03 04:39:10;;;;;;;44.10;23.80;;;;;;;6.91;70.89;100238.16;105541;1276;26593;-60
2022/05/03 04:41:42;;;;;;;37.70;21.00;;;;;;;6.96;70.81;100240.59;105558;1276;22572;-60
2022/05/03 04:44:14;;;;;;;42.20;21.50;;;;;;;7.01;70.68;100244.36;105532;1276;24285;-63
2022/05/03 04:46:45;;;;;;;35.80;21.30;;;;;;;7.07;70.71;100242.48;105573;1276;24254;-62
2022/05/03 04:49:18;;;;;;;40.30;20.90;;;;;;;7.13;70.90;100246.42;105539;1276;24725;-61
2022/05/03 04:51:50;;;;;;;36.60;20.00;;;;;;;7.18;70.97;100248.52;105518;1276;25373;-61
2022/05/03 04:54:21;;;;;;;38.50;22.20;;;;;;;7.26;71.19;100248.30;105392;1274;22923;-61
2022/05/03 04:56:58;;;;;;;39.00;20.40;;;;;;;7.33;71.26;100246.42;105371;1275;22637;-61
2022/05/03 04:59:30;;;;;;;40.00;22.30;;;;;;;7.42;71.72;100247.59;105666;1276;25264;-62
2022/05/03 05:02:02;;;;;;;42.90;22.90;;;;;;;7.53;72.50;100246.77;105521;1276;24477;-62
2022/05/03 05:04:33;;;;;;;40.40;22.70;;;;;;;7.64;72.97;100245.83;105548;1276;24389;-62
2022/05/03 05:07:05;;;;;;;43.50;24.60;;;;;;;7.75;73.34;100245.14;105550;1276;22550;-61
2022/05/03 05:09:37;;;;;;;39.90;22.60;;;;;;;7.84;73.63;100243.54;105429;1276;22596;-60
2022/05/03 05:12:09;;;;;;;42.90;23.70;;;;;;;7.95;73.49;100245.83;105466;1274;22562;-61
2022/05/03 05:14:41;;;;;;;39.70;22.40;;;;;;;8.06;73.49;100242.01;105537;1276;22556;-61
2022/05/03 05:17:16;;;;;;;38.20;20.90;;;;;;;8.17;73.50;100240.75;105939;1274;22552;-60
2022/05/03 05:19:48;;;;;;;37.50;21.30;;;;;;;8.29;73.44;100240.96;105687;1276;22535;-61
2022/05/03 05:22:19;;;;;;;36.40;18.90;;;;;;;8.41;73.10;100240.75;105618;1276;24336;-60
2022/05/03 05:24:50;;;;;;;34.50;17.60;;;;;;;8.53;72.62;100245.76;105440;1276;23251;-61
2022/05/03 05:27:22;;;;;;;33.40;18.30;;;;;;;8.66;72.65;100254.67;105610;1275;22585;-61
2022/05/03 05:29:53;;;;;;;33.10;17.20;;;;;;;8.78;73.20;100256.89;105542;1274;24274;-61
2022/05/03 05:32:25;;;;;;;32.90;15.50;;;;;;;8.91;73.23;100257.59;105623;1275;24324;-63
2022/05/03 05:34:56;;;;;;;34.70;15.90;;;;;;;9.02;73.01;100256.66;105591;1276;24323;-62
2022/05/03 05:37:28;;;;;;;33.30;16.40;;;;;;;9.13;73.02;100260.52;105710;1276;26495;-64
2022/05/03 05:39:59;;;;;;;30.30;15.00;;;;;;;9.23;72.53;100259.19;105575;1276;22627;-62
2022/05/03 05:42:31;;;;;;;28.80;14.90;;;;;;;9.32;72.24;100259.66;105924;1274;24490;-61
2022/05/03 05:45:02;;;;;;;32.50;15.00;;;;;;;9.40;71.93;100262.30;105516;1274;23100;-60
2022/05/03 05:47:34;;;;;;;27.70;15.40;;;;;;;9.49;72.07;100265.16;105713;1275;24245;-61
2022/05/03 05:50:07;;;;;;;28.40;13.40;;;;;;;9.59;71.96;100264.27;105565;1276;22683;-61
2022/05/03 05:55:27;;;;;;;29.50;14.50;;;;;;;9.85;71.55;100263.83;105451;1275;23159;-61
2022/05/03 05:57:59;;;;;;;30.00;14.20;;;;;;;9.99;71.27;100268.77;105811;1275;23526;-61
2022/05/03 06:00:31;;;;;;;27.50;14.20;;;;;;;10.13;70.83;100270.89;105964;1275;22814;-62
2022/05/03 06:03:02;;;;;;;25.90;10.90;;;;;;;10.25;70.50;100270.26;105483;1276;22579;-62
2022/05/03 06:05:33;;;;;;;24.30;11.30;;;;;;;10.36;70.11;100267.95;105645;1276;22576;-62
2022/05/03 06:08:08;;;;;;;27.90;10.70;;;;;;;10.48;70.22;100269.55;105776;1276;22563;-61
2022/05/03 06:10:40;;;;;;;26.10;10.40;;;;;;;10.61;69.94;100267.05;105832;1274;23435;-62
2022/05/03 06:13:13;;;;;;;21.10;9.40;;;;;;;10.71;69.57;100264.36;105678;1276;24364;-62
2022/05/03 06:15:45;;;;;;;23.00;9.60;;;;;;;10.83;69.42;100263.25;105874;1275;22702;-62
2022/05/03 06:18:17;;;;;;;19.90;8.40;;;;;;;10.94;69.16;100262.00;105463;1276;25259;-62
2022/05/03 06:20:48;;;;;;;21.10;9.20;;;;;;;11.06;68.85;100262.86;105411;1276;22501;-63
2022/05/03 06:23:19;;;;;;;21.30;9.50;;;;;;;11.18;68.78;100268.96;105368;1276;22561;-62
2022/05/03 06:25:52;;;;;;;20.80;8.60;;;;;;;11.29;68.39;100268.54;105398;1276;25469;-62
2022/05/03 06:28:24;;;;;;;20.10;8.50;;;;;;;11.41;67.99;100269.95;105664;1276;25539;-62
2022/05/03 06:30:55;;;;;;;22.10;9.60;;;;;;;11.55;67.95;100273.11;105591;1276;24336;-64
2022/05/03 06:33:27;;;;;;;21.50;8.90;;;;;;;11.69;67.54;100271.88;105664;1276;22564;-63
2022/05/03 06:35:58;;;;;;;19.30;7.90;;;;;;;11.83;67.10;100272.20;105524;1276;25333;-62
2022/05/03 06:38:31;;;;;;;22.50;8.40;;;;;;;11.97;67.04;100272.69;105572;1276;22571;-63
2022/05/03 06:41:03;;;;;;;19.40;8.00;;;;;;;12.09;66.19;100271.23;105467;1276;22606;-62
2022/05/03 06:43:35;;;;;;;23.50;7.30;;;;;;;12.20;66.09;100270.62;105447;1275;22563;-62
2022/05/03 06:46:07;;;;;;;16.10;7.10;;;;;;;12.30;65.80;100271.74;105404;1276;22547;-62
2022/05/03 06:48:38;;;;;;;19.60;7.20;;;;;;;12.36;65.38;100275.09;105454;1276;24279;-62
2022/05/03 06:51:10;;;;;;;19.20;7.50;;;;;;;12.46;65.18;100272.05;105484;1274;22558;-62
2022/05/03 06:53:42;;;;;;;19.20;6.50;;;;;;;12.54;64.73;100270.22;105464;1274;24346;-61
2022/05/03 06:56:14;;;;;;;17.00;6.30;;;;;;;12.65;64.71;100268.96;105369;1275;22537;-62
2022/05/03 06:58:46;;;;;;;16.70;6.50;;;;;;;12.75;64.25;100273.30;105560;1275;22624;-63
2022/05/03 07:01:18;;;;;;;15.50;6.40;;;;;;;12.83;63.72;100275.33;105506;1275;24311;-62
2022/05/03 07:03:50;;;;;;;19.30;7.10;;;;;;;12.91;63.37;100277.50;105397;1276;23997;-62
2022/05/03 07:06:22;;;;;;;14.70;6.00;;;;;;;13.03;63.43;100271.45;105442;1275;25345;-62
2022/05/03 07:08:54;;;;;;;14.00;5.90;;;;;;;13.14;62.58;100274.83;105467;1276;22606;-63
2022/05/03 07:11:25;;;;;;;14.30;4.70;;;;;;;13.23;62.62;100281.59;105472;1276;22529;-63
2022/05/03 07:13:57;;;;;;;17.80;5.20;;;;;;;13.33;61.14;100282.89;105540;1275;25396;-62
2022/05/03 07:16:28;;;;;;;15.80;5.50;;;;;;;13.44;61.77;100281.56;105472;1276;22546;-62
2022/05/03 07:24:38;;;;;;;15.50;6.00;;;;;;;13.67;61.17;100287.76;105391;1276;22540;-63
2022/05/03 07:27:09;;;;;;;16.90;4.50;;;;;;;13.76;60.60;100291.48;105466;1275;22535;-63
2022/05/03 07:29:41;;;;;;;12.60;4.20;;;;;;;13.83;59.72;100289.19;105556;1276;22556;-62
2022/05/03 07:32:13;;;;;;;13.40;3.90;;;;;;;13.91;59.57;100292.41;105594;1274;26659;-62
2022/05/03 07:34:46;;;;;;;14.90;5.60;;;;;;;13.99;59.75;100292.21;105491;1274;22617;-64
2022/05/03 07:37:18;;;;;;;13.10;4.40;;;;;;;14.08;58.99;100297.15;105341;1276;25534;-62
2022/05/03 07:39:49;;;;;;;14.20;5.60;;;;;;;14.14;59.09;100297.70;105537;1275;22547;-63
2022/05/03 07:42:21;;;;;;;12.90;4.30;;;;;;;14.22;58.78;100302.74;105427;1275;22560;-63
2022/05/03 07:44:53;;;;;;;17.90;4.80;;;;;;;14.28;58.69;100297.43;105685;1276;25508;-63
2022/05/03 07:47:24;;;;;;;17.10;5.00;;;;;;;14.34;59.04;100303.45;105605;1275;25386;-63
2022/05/03 07:49:55;;;;;;;14.30;5.00;;;;;;;14.43;58.34;100303.14;105465;1275;22541;-62
2022/05/03 07:52:27;;;;;;;10.60;4.00;;;;;;;14.52;57.68;100305.58;105666;1276;22554;-62
2022/05/03 07:54:59;;;;;;;11.50;3.10;;;;;;;14.58;56.64;100305.64;105623;1274;22600;-63
2022/05/03 07:57:31;;;;;;;11.10;3.10;;;;;;;14.66;56.13;100305.20;105749;1275;22614;-63
2022/05/03 08:00:04;;;;;;;13.00;4.90;;;;;;;14.73;56.03;100304.16;105681;1276;25504;-63
2022/05/03 08:02:37;;;;;;;11.50;4.10;;;;;;;14.83;56.25;100301.95;105693;1274;22535;-62
2022/05/03 08:05:10;;;;;;;16.30;4.70;;;;;;;14.91;56.11;100305.14;105670;1275;22630;-62
2022/05/03 08:07:42;;;;;;;12.40;4.10;;;;;;;15.01;55.91;100301.32;105817;1276;24425;-58
2022/05/03 08:10:14;;;;;;;11.90;3.60;;;;;;;15.11;55.71;100303.80;105685;1274;24241;-62
2022/05/03 08:12:50;;;;;;;12.50;2.80;;;;;;;15.21;55.42;100302.22;105627;1276;22509;-63
2022/05/03 08:15:23;;;;;;;10.20;2.60;;;;;;;15.32;54.31;100305.20;105531;1274;26213;-63
2022/05/03 08:17:54;;;;;;;13.80;2.80;;;;;;;15.44;53.32;100305.33;105610;1276;26758;-63
2022/05/03 08:20:25;;;;;;;13.10;2.40;;;;;;;15.55;53.02;100304.72;105519;1275;22534;-63
2022/05/03 08:22:57;;;;;;;10.20;3.40;;;;;;;15.62;53.25;100306.87;105582;1276;26506;-63
2022/05/03 08:25:29;;;;;;;10.20;2.50;;;;;;;15.70;53.36;100310.08;105752;1275;22764;-63
2022/05/03 08:28:01;;;;;;;10.10;2.40;;;;;;;15.80;52.69;100312.59;105902;1276;22579;-62
2022/05/03 08:30:32;;;;;;;9.20;1.90;;;;;;;15.92;51.73;100317.95;106007;1274;25302;-63
2022/05/03 08:33:04;;;;;;;8.30;1.70;;;;;;;16.04;51.65;100316.55;105561;1275;23143;-63
2022/05/03 08:35:35;;;;;;;10.30;2.70;;;;;;;16.14;51.28;100321.64;105572;1276;25072;-63
2022/05/03 08:43:46;;;;;;;8.10;2.10;;;;;;;16.30;50.14;100319.61;105529;1275;25367;-63
2022/05/03 08:46:21;;;;;;;6.50;2.10;;;;;;;16.37;50.09;100320.96;105670;1276;24838;-64
2022/05/03 08:48:57;;;;;;;8.40;2.40;;;;;;;16.46;49.55;100321.81;105578;1276;22571;-64
2022/05/03 08:51:32;;;;;;;10.00;2.10;;;;;;;16.47;48.83;100321.03;105540;1275;22541;-63
2022/05/03 08:54:04;;;;;;;7.50;2.00;;;;;;;16.44;48.58;100319.61;105803;1276;22556;-64
2022/05/03 08:56:38;;;;;;;10.40;2.20;;;;;;;16.43;49.08;100319.87;105653;1275;25554;-63
2022/05/03 08:59:10;;;;;;;7.70;2.20;;;;;;;16.42;48.90;100318.13;105929;1276;22579;-64
2022/05/03 09:01:42;;;;;;;11.90;2.30;;;;;;;16.46;48.55;100317.20;105525;1276;22560;-63
2022/05/03 09:04:14;;;;;;;10.10;2.70;;;;;;;16.55;48.77;100313.20;105563;1275;22557;-63
2022/05/03 09:06:47;;;;;;;9.50;2.10;;;;;;;16.65;48.68;100308.48;105693;1275;24239;-62
2022/05/03 09:09:20;;;;;;;9.60;2.70;;;;;;;16.70;48.16;100307.08;105654;1276;25313;-64
2022/05/03 09:11:54;;;;;;;7.90;2.30;;;;;;;16.70;47.51;100304.71;105621;1276;25453;-63
2022/05/03 09:14:39;;;;;;;9.90;2.30;;;;;;;16.68;47.55;100305.65;105846;1275;24250;-63
2022/05/03 09:17:11;;;;;;;9.40;2.10;;;;;;;16.68;47.68;100305.40;105603;1274;25362;-63
2022/05/03 09:19:43;;;;;;;8.60;2.40;;;;;;;16.68;47.57;100305.49;105712;1275;22575;-63
2022/05/03 09:25:15;;;;;;;10.60;3.50;;;;;;;16.66;47.17;100304.69;105486;1276;22564;-64
2022/05/03 09:27:46;;;;;;;7.60;2.10;;;;;;;16.68;46.88;100302.73;105671;1276;25268;-64
2022/05/03 09:30:18;;;;;;;9.30;2.50;;;;;;;16.73;47.34;100300.45;105560;1276;22636;-64
2022/05/03 09:32:52;;;;;;;8.40;2.50;;;;;;;16.85;47.55;100296.55;105557;1275;22539;-64
2022/05/03 09:35:36;;;;;;;12.00;2.40;;;;;;;16.97;47.01;100297.20;105739;1274;24254;-65
2022/05/03 09:38:16;;;;;;;8.70;2.40;;;;;;;17.08;46.90;100294.05;105555;1276;22609;-63
2022/05/03 09:40:48;;;;;;;9.90;2.50;;;;;;;17.20;46.80;100293.71;105578;1274;22618;-64
2022/05/03 09:43:20;;;;;;;9.90;2.10;;;;;;;17.32;46.85;100291.27;105468;1276;22589;-64
2022/05/03 09:46:06;;;;;;;10.90;2.30;;;;;;;17.45;46.38;100287.52;101354;1275;5736982;-64
2022/05/03 09:48:54;;;;;;;10.50;2.50;;;;;;;17.58;46.03;100286.56;105815;1276;24349;-64
2022/05/03 09:51:28;;;;;;;8.50;2.30;;;;;;;17.66;45.25;100290.76;105587;1276;25283;-64
2022/05/03 09:54:02;;;;;;;11.70;2.60;;;;;;;17.66;45.06;100289.01;105549;1275;22569;-64
2022/05/03 09:56:38;;;;;;;7.30;1.90;;;;;;;17.70;45.38;100285.99;105899;1275;22730;-65
2022/05/03 09:59:11;;;;;;;11.20;2.30;;;;;;;17.78;45.28;100283.41;105684;1275;24634;-65
2022/05/03 10:01:43;;;;;;;12.00;2.90;;;;;;;17.83;44.73;100280.64;105837;1275;22540;-64
2022/05/03 10:04:16;;;;;;;9.20;2.30;;;;;;;17.86;44.47;100277.48;105734;1276;22563;-64
2022/05/03 10:06:48;;;;;;;11.30;2.50;;;;;;;17.87;44.74;100277.51;105720;1276;23239;-65
2022/05/03 10:09:20;;;;;;;9.00;2.00;;;;;;;17.93;44.80;100268.66;106046;1274;22538;-64
2022/05/03 10:11:54;;;;;;;7.10;2.00;;;;;;;18.02;44.39;100267.96;105618;1276;22546;-65
2022/05/03 10:14:26;;;;;;;12.40;2.80;;;;;;;18.07;43.43;100268.15;105934;1276;22537;-65
2022/05/03 10:22:41;;;;;;;8.80;2.00;;;;;;;18.18;43.31;100260.17;105651;1276;25375;-65
2022/05/03 10:25:14;;;;;;;8.40;2.20;;;;;;;18.23;43.31;100254.36;105708;1275;22644;-64
2022/05/03 10:27:59;;;;;;;5.90;1.90;;;;;;;18.30;43.38;100256.55;105613;1276;22615;-65
2022/05/03 10:30:34;;;;;;;9.00;1.90;;;;;;;18.37;43.24;100249.15;105859;1274;25485;-64
2022/05/03 10:33:40;;;;;;;8.90;2.00;;;;;;;18.37;43.01;100254.73;105663;1275;25542;-64
2022/05/03 10:36:43;;;;;;;10.40;2.40;;;;;;;18.39;43.36;100255.79;105612;1276;23917;-64
2022/05/03 10:39:25;;;;;;;7.90;2.10;;;;;;;18.33;42.52;100252.49;105580;1276;23141;-65
2022/05/03 10:42:02;;;;;;;6.80;2.20;;;;;;;18.25;42.65;100250.73;105654;1276;25170;-64
2022/05/03 10:44:45;;;;;;;10.50;2.60;;;;;;;18.18;42.88;100250.00;105464;1276;22544;-65
2022/05/03 10:47:39;;;;;;;11.60;2.30;;;;;;;18.18;42.64;100245.41;105747;1276;23847;-65
2022/05/03 10:50:30;;;;;;;7.70;2.00;;;;;;;18.16;42.45;100242.48;105463;1276;26616;-66
2022/05/03 10:53:24;;;;;;;10.00;2.70;;;;;;;18.20;42.47;100244.02;105609;1276;25426;-66
2022/05/03 10:56:21;;;;;;;6.70;1.90;;;;;;;18.30;42.93;100240.61;105407;1276;23887;-66
2022/05/03 10:59:16;;;;;;;6.90;2.00;;;;;;;18.47;42.79;100236.80;105355;1277;22613;-65
2022/05/03 11:02:09;;;;;;;10.20;2.40;;;;;;;18.63;41.90;100236.82;105401;1277;22539;-65
2022/05/03 11:05:14;;;;;;;7.90;2.30;;;;;;;18.71;41.82;100236.49;105439;1277;25348;-65
2022/05/03 11:08:18;;;;;;;7.60;2.30;;;;;;;18.82;42.26;100233.65;105588;1276;25676;-65
2022/05/03 11:10:49;;;;;;;6.60;1.80;;;;;;;18.95;41.85;100231.04;105535;1276;26498;-65
2022/05/03 11:13:39;;;;;;;6.60;2.00;;;;;;;19.06;41.19;100227.27;105567;1276;25414;-65
2022/05/03 11:16:25;;;;;;;5.90;1.90;;;;;;;19.08;41.03;100226.52;105583;1276;22814;-64
2022/05/03 11:18:57;;;;;;;8.70;2.40;;;;;;;19.01;41.02;100232.02;105480;1276;25354;-65
2022/05/03 11:21:29;;;;;;;10.70;2.40;;;;;;;18.95;40.86;100229.86;105883;1274;22534;-66
2022/05/03 11:24:00;;;;;;;13.00;2.40;;;;;;;18.94;42.00;100229.77;105775;1274;25582;-65
2022/05/03 11:26:32;;;;;;;8.10;2.40;;;;;;;18.94;41.03;100232.27;105557;1275;22728;-65
2022/05/03 11:29:05;;;;;;;8.00;2.00;;;;;;;18.95;40.95;100223.49;105649;1275;25344;-63
2022/05/03 11:31:37;;;;;;;8.60;2.10;;;;;;;19.00;41.41;100222.69;105566;1276;23201;-66
2022/05/03 11:34:09;;;;;;;7.50;2.10;;;;;;;19.04;41.02;100220.42;105886;1275;22635;-64
2022/05/03 11:36:42;;;;;;;7.70;1.90;;;;;;;19.06;40.95;100218.38;105580;1275;22903;-66
2022/05/03 11:39:16;;;;;;;8.30;2.40;;;;;;;19.06;41.71;100223.77;105532;1276;22518;-66
2022/05/03 11:41:49;;;;;;;6.40;2.10;;;;;;;19.01;41.32;100218.25;105439;1275;22555;-66
2022/05/03 11:44:21;;;;;;;8.80;1.80;;;;;;;18.99;41.13;100220.96;105602;1274;25221;-66
2022/05/03 11:46:53;;;;;;;7.60;2.10;;;;;;;18.97;41.78;100219.55;105916;1275;22556;-65
2022/05/03 11:49:28;;;;;;;6.90;2.30;;;;;;;18.96;42.28;100217.20;105593;1275;25369;-66
2022/05/03 11:57:42;;;;;;;9.10;2.50;;;;;;;19.11;41.51;100216.95;105424;1276;25353;-65
2022/05/03 12:00:16;;;;;;;5.20;1.60;;;;;;;19.14;41.15;100213.48;105571;1276;22522;-66
2022/05/03 12:02:51;;;;;;;7.50;1.70;;;;;;;19.15;41.04;100213.35;105563;1276;25431;-66
2022/05/03 12:05:22;;;;;;;9.30;2.30;;;;;;;19.17;40.81;100212.33;105839;1274;23112;-66
2022/05/03 12:07:56;;;;;;;6.60;2.20;;;;;;;19.20;41.09;100209.85;105504;1274;22559;-66
2022/05/03 12:10:29;;;;;;;9.10;1.80;;;;;;;19.26;40.89;100207.69;105655;1276;22548;-66
2022/05/03 12:13:09;;;;;;;7.50;1.80;;;;;;;19.34;40.68;100210.17;105556;1276;26554;-65
2022/05/03 12:15:46;;;;;;;7.40;2.00;;;;;;;19.41;40.53;100212.26;105891;1275;25552;-69
2022/05/03 12:18:20;;;;;;;6.40;1.70;;;;;;;19.44;40.28;100208.20;105488;1276;22620;-65
2022/05/03 12:20:55;;;;;;;8.00;1.90;;;;;;;19.47;40.14;100206.45;105482;1276;24420;-65
2022/05/03 12:23:38;;;;;;;7.50;2.20;;;;;;;19.50;40.25;100200.41;105579;1275;24227;-66